Home PIREPS Pireps

Flight SAB2723

  • Submitted By: Carl Hermans
  • Departure Airport: Bruxelles National (EBBR)
  • Arrival Airport: airoport Geneve-Cointrin (LSGG)
  • Aircraft: B737-500 (OO-SAB)
  • Flight Time: 01.23
  • Date Submitted: 16/09/2015
  • Status: Accepted
Flight Details
Gross Revenue:
(129 load / € 0.00 per unit
€ 0.00
Fuel Cost:
(3421 fuel used @ 5.1 / unit)
€ 17,447.10

Additional Log Information:

View Log

Aircraft Used in flight is iFly 737-800 (Wide screen)
15:27 Brakes are On
15:27 Recovered from Stall
15:27 Recovered from Overspeed
15:36Flaps 1 Selected at 190ft and 0kts
15:36Flaps 3 Selected at 190ft and 0kts
15:38 Brakes are Released
15:40 Brakes are On
15:42 Engine 1 Started
15:43 Engine 2 Started
15:43 Taxi Lights ON at 190 AGL
15:43 Beacon Lights ON at 190 AGL
15:43 Navigation Lights ON at 190 AGL
15:43 Brakes are Released
15:48 Taxi Lights OFF at 190 AGL
15:49 You Took off @ 170 Knots and Flaps at Position 3
Departure Weather
EBBR 161320Z 17007KT 130V200 9999 FEW011 19/17 Q0989 NOSIGrn
15:49 Landing Gear Up @ 182 Knots and 340 Feet
15:50Flaps 2 Selected at 2380ft and 189kts
15:50Flaps 1 Selected at 2550ft and 199kts
15:50Flaps Retracted at 2800ft and 208kts
15:52 Below Fl100 you need to turn on the landing lights
15:52 Below FL100 you need to turn on the landing lights
16:30Flaps 1 Selected at 13410ft and 199kts
16:31Flaps 2 Selected at 13350ft and 198kts
16:38Flaps 3 Selected at 6820ft and 199kts
16:40Flaps 4 Selected at 4710ft and 162kts
16:40Flaps 5 Selected at 4730ft and 158kts
16:40Flaps 6 Selected at 4750ft and 159kts
16:43 Landing Gear Down @ 147 Knots and 3780 Feet
16:44Flaps 7 Selected at 3520ft and 146kts
16:44Flaps 8 Selected at 3410ft and 147kts
16:47 You Landed @ 147 Knots and with -700 Vertical Speed
Arrival Weather
LSGG 161420Z 09005KT 9999 FEW050 BKN130 20/16 Q1000 NOSIGrn
16:47 Your Landing was very hard
16:47Flaps Retracted at 1420ft and 0kts
16:48 Taxi Lights ON at 1420 AGL
16:49 Brakes are On
16:50 Navigation Lights OFF at 1420 AGL
16:50 Beacon Lights OFF at 1420 AGL
16:50 Taxi Lights OFF at 1420 AGL
16:50 Engine 1 Stoped
16:50 Engine 2 Stoped
16:50 Brussels Bel-Track1.0.0.11

Route Map

Corporate About Us Our Team Vacancies Information Fleet Route Network Rules and Regulations Operations Flight Schedules Event Center Tours Partners IVAO Vatsim Acars dev FSCB

fb Users Online Belgium Serge Van Laethem, Belgium Roger Wijns, United Kingdom David Chenery,
3 Pilot(s) and 225 Guest(s) Online
CMS by phpVMS - Design by Crazycreatives.com - Copyright © 2018 - Brussels Airlines Virtual